sensor_id;sensor_type;location;lat;lon;timestamp;P1;durP1;ratioP1;P2;durP2;ratioP2
16766;SDS011;8501;49.926;8.404;2022-12-20T00:01:32;146.43;;;58.87;;
16766;SDS011;8501;49.926;8.404;2022-12-20T00:03:59;154.30;;;58.43;;
16766;SDS011;8501;49.926;8.404;2022-12-20T00:06:27;150.17;;;58.50;;
16766;SDS011;8501;49.926;8.404;2022-12-20T00:08:57;139.77;;;58.27;;
16766;SDS011;8501;49.926;8.404;2022-12-20T00:11:24;142.33;;;57.70;;
16766;SDS011;8501;49.926;8.404;2022-12-20T00:13:51;142.33;;;57.30;;
16766;SDS011;8501;49.926;8.404;2022-12-20T00:16:18;147.67;;;56.87;;
16766;SDS011;8501;49.926;8.404;2022-12-20T00:18:45;135.43;;;57.03;;
16766;SDS011;8501;49.926;8.404;2022-12-20T00:21:12;140.03;;;55.37;;
16766;SDS011;8501;49.926;8.404;2022-12-20T00:23:39;137.60;;;55.27;;
16766;SDS011;8501;49.926;8.404;2022-12-20T00:26:09;152.27;;;56.30;;
16766;SDS011;8501;49.926;8.404;2022-12-20T00:28:36;140.70;;;56.07;;
16766;SDS011;8501;49.926;8.404;2022-12-20T00:31:03;133.40;;;54.10;;
16766;SDS011;8501;49.926;8.404;2022-12-20T00:33:29;137.87;;;54.30;;
16766;SDS011;8501;49.926;8.404;2022-12-20T00:35:55;135.20;;;55.17;;
16766;SDS011;8501;49.926;8.404;2022-12-20T00:38:22;134.50;;;56.23;;
16766;SDS011;8501;49.926;8.404;2022-12-20T00:40:57;134.23;;;53.63;;
16766;SDS011;8501;49.926;8.404;2022-12-20T00:43:34;144.93;;;55.90;;
16766;SDS011;8501;49.926;8.404;2022-12-20T00:46:00;141.87;;;55.90;;
16766;SDS011;8501;49.926;8.404;2022-12-20T00:48:26;136.50;;;54.53;;
16766;SDS011;8501;49.926;8.404;2022-12-20T00:50:56;138.57;;;54.73;;
16766;SDS011;8501;49.926;8.404;2022-12-20T00:53:27;128.10;;;54.40;;
16766;SDS011;8501;49.926;8.404;2022-12-20T00:55:53;145.30;;;55.47;;
16766;SDS011;8501;49.926;8.404;2022-12-20T00:58:18;137.13;;;55.90;;
16766;SDS011;8501;49.926;8.404;2022-12-20T01:00:44;143.17;;;56.07;;
16766;SDS011;8501;49.926;8.404;2022-12-20T01:03:10;132.90;;;54.07;;
16766;SDS011;8501;49.926;8.404;2022-12-20T01:05:35;144.27;;;55.70;;
16766;SDS011;8501;49.926;8.404;2022-12-20T01:08:01;134.73;;;55.00;;
16766;SDS011;8501;49.926;8.404;2022-12-20T01:10:26;127.73;;;54.00;;
16766;SDS011;8501;49.926;8.404;2022-12-20T01:12:52;137.73;;;56.13;;
16766;SDS011;8501;49.926;8.404;2022-12-20T01:15:18;138.07;;;55.67;;
16766;SDS011;8501;49.926;8.404;2022-12-20T01:17:45;138.37;;;56.23;;
16766;SDS011;8501;49.926;8.404;2022-12-20T01:20:10;136.60;;;54.07;;
16766;SDS011;8501;49.926;8.404;2022-12-20T01:22:36;132.80;;;54.83;;
16766;SDS011;8501;49.926;8.404;2022-12-20T01:25:02;130.63;;;54.33;;
16766;SDS011;8501;49.926;8.404;2022-12-20T01:27:27;132.20;;;54.53;;
16766;SDS011;8501;49.926;8.404;2022-12-20T01:29:53;138.33;;;54.83;;
16766;SDS011;8501;49.926;8.404;2022-12-20T01:32:19;142.93;;;55.43;;
16766;SDS011;8501;49.926;8.404;2022-12-20T01:34:44;141.27;;;54.97;;
16766;SDS011;8501;49.926;8.404;2022-12-20T01:37:10;145.17;;;54.87;;
16766;SDS011;8501;49.926;8.404;2022-12-20T01:39:36;139.27;;;54.30;;
16766;SDS011;8501;49.926;8.404;2022-12-20T01:42:02;136.73;;;53.53;;
16766;SDS011;8501;49.926;8.404;2022-12-20T01:46:53;131.13;;;53.77;;
16766;SDS011;8501;49.926;8.404;2022-12-20T01:57:15;134.90;;;52.57;;
16766;SDS011;8501;49.926;8.404;2022-12-20T01:59:45;131.67;;;52.53;;
16766;SDS011;8501;49.926;8.404;2022-12-20T02:02:12;129.37;;;52.40;;
16766;SDS011;8501;49.926;8.404;2022-12-20T02:04:38;125.27;;;52.23;;
16766;SDS011;8501;49.926;8.404;2022-12-20T02:07:04;126.40;;;51.87;;
16766;SDS011;8501;49.926;8.404;2022-12-20T02:09:32;131.83;;;53.30;;
16766;SDS011;8501;49.926;8.404;2022-12-20T02:12:08;121.97;;;51.23;;
16766;SDS011;8501;49.926;8.404;2022-12-20T02:17:25;129.57;;;54.00;;
16766;SDS011;8501;49.926;8.404;2022-12-20T02:22:54;129.17;;;52.77;;
16766;SDS011;8501;49.926;8.404;2022-12-20T02:30:41;128.00;;;52.53;;
16766;SDS011;8501;49.926;8.404;2022-12-20T02:33:11;125.50;;;53.70;;
16766;SDS011;8501;49.926;8.404;2022-12-20T02:35:40;125.23;;;51.93;;
16766;SDS011;8501;49.926;8.404;2022-12-20T02:40:55;130.90;;;53.40;;
16766;SDS011;8501;49.926;8.404;2022-12-20T02:43:31;126.57;;;52.47;;
16766;SDS011;8501;49.926;8.404;2022-12-20T02:46:18;129.30;;;52.57;;
16766;SDS011;8501;49.926;8.404;2022-12-20T02:48:45;132.80;;;52.97;;
16766;SDS011;8501;49.926;8.404;2022-12-20T02:51:12;126.00;;;51.63;;
16766;SDS011;8501;49.926;8.404;2022-12-20T02:53:40;123.03;;;51.67;;
16766;SDS011;8501;49.926;8.404;2022-12-20T02:56:21;131.47;;;51.40;;
16766;SDS011;8501;49.926;8.404;2022-12-20T02:58:54;127.33;;;51.43;;
16766;SDS011;8501;49.926;8.404;2022-12-20T03:01:39;133.07;;;51.70;;
16766;SDS011;8501;49.926;8.404;2022-12-20T03:04:08;125.43;;;52.47;;
16766;SDS011;8501;49.926;8.404;2022-12-20T03:06:35;131.37;;;52.67;;
16766;SDS011;8501;49.926;8.404;2022-12-20T03:09:01;133.43;;;54.97;;
16766;SDS011;8501;49.926;8.404;2022-12-20T03:11:27;132.07;;;54.17;;
16766;SDS011;8501;49.926;8.404;2022-12-20T03:13:52;129.50;;;54.10;;
16766;SDS011;8501;49.926;8.404;2022-12-20T03:16:18;127.47;;;53.07;;
16766;SDS011;8501;49.926;8.404;2022-12-20T03:18:43;131.20;;;54.27;;
16766;SDS011;8501;49.926;8.404;2022-12-20T03:21:10;127.87;;;52.83;;
16766;SDS011;8501;49.926;8.404;2022-12-20T03:23:35;127.93;;;52.63;;
16766;SDS011;8501;49.926;8.404;2022-12-20T03:26:01;132.00;;;51.47;;
16766;SDS011;8501;49.926;8.404;2022-12-20T03:28:26;126.23;;;51.93;;
16766;SDS011;8501;49.926;8.404;2022-12-20T03:30:52;121.80;;;50.70;;
16766;SDS011;8501;49.926;8.404;2022-12-20T03:33:17;120.23;;;50.03;;
16766;SDS011;8501;49.926;8.404;2022-12-20T03:35:43;122.90;;;51.10;;
16766;SDS011;8501;49.926;8.404;2022-12-20T03:38:09;125.43;;;49.70;;
16766;SDS011;8501;49.926;8.404;2022-12-20T03:40:34;118.87;;;48.90;;
16766;SDS011;8501;49.926;8.404;2022-12-20T03:43:00;114.57;;;46.10;;
16766;SDS011;8501;49.926;8.404;2022-12-20T03:45:25;120.07;;;47.70;;
16766;SDS011;8501;49.926;8.404;2022-12-20T03:47:51;111.93;;;46.30;;
16766;SDS011;8501;49.926;8.404;2022-12-20T03:50:16;115.47;;;46.90;;
16766;SDS011;8501;49.926;8.404;2022-12-20T03:52:42;114.27;;;46.70;;
16766;SDS011;8501;49.926;8.404;2022-12-20T03:55:07;124.97;;;50.40;;
16766;SDS011;8501;49.926;8.404;2022-12-20T03:57:34;108.50;;;46.67;;
16766;SDS011;8501;49.926;8.404;2022-12-20T04:00:00;110.40;;;46.67;;
16766;SDS011;8501;49.926;8.404;2022-12-20T04:02:25;113.00;;;46.83;;
16766;SDS011;8501;49.926;8.404;2022-12-20T04:04:51;121.30;;;46.83;;
16766;SDS011;8501;49.926;8.404;2022-12-20T04:07:16;115.80;;;46.50;;
16766;SDS011;8501;49.926;8.404;2022-12-20T04:09:42;116.87;;;46.33;;
16766;SDS011;8501;49.926;8.404;2022-12-20T04:12:08;114.30;;;45.47;;
16766;SDS011;8501;49.926;8.404;2022-12-20T04:14:33;108.13;;;45.83;;
16766;SDS011;8501;49.926;8.404;2022-12-20T04:17:00;113.67;;;47.03;;
16766;SDS011;8501;49.926;8.404;2022-12-20T04:19:25;117.80;;;47.80;;
16766;SDS011;8501;49.926;8.404;2022-12-20T04:21:51;115.33;;;47.20;;
16766;SDS011;8501;49.926;8.404;2022-12-20T04:24:16;124.53;;;48.47;;
16766;SDS011;8501;49.926;8.404;2022-12-20T04:26:42;116.63;;;46.57;;
16766;SDS011;8501;49.926;8.404;2022-12-20T04:29:07;116.27;;;47.50;;
16766;SDS011;8501;49.926;8.404;2022-12-20T04:31:33;120.83;;;47.40;;
16766;SDS011;8501;49.926;8.404;2022-12-20T04:33:59;120.20;;;48.27;;
16766;SDS011;8501;49.926;8.404;2022-12-20T04:36:24;111.13;;;47.43;;
16766;SDS011;8501;49.926;8.404;2022-12-20T04:38:50;116.73;;;47.90;;
16766;SDS011;8501;49.926;8.404;2022-12-20T04:41:15;111.07;;;47.50;;
16766;SDS011;8501;49.926;8.404;2022-12-20T04:43:50;109.27;;;45.57;;
16766;SDS011;8501;49.926;8.404;2022-12-20T04:46:17;121.67;;;45.93;;
16766;SDS011;8501;49.926;8.404;2022-12-20T04:48:43;109.57;;;44.93;;
16766;SDS011;8501;49.926;8.404;2022-12-20T04:51:09;108.60;;;44.40;;
16766;SDS011;8501;49.926;8.404;2022-12-20T04:53:35;116.77;;;45.20;;
16766;SDS011;8501;49.926;8.404;2022-12-20T04:56:22;105.13;;;43.40;;
16766;SDS011;8501;49.926;8.404;2022-12-20T04:58:50;105.80;;;44.23;;
16766;SDS011;8501;49.926;8.404;2022-12-20T05:01:17;106.03;;;45.60;;
16766;SDS011;8501;49.926;8.404;2022-12-20T05:03:43;109.23;;;46.10;;
16766;SDS011;8501;49.926;8.404;2022-12-20T05:06:09;108.30;;;46.70;;
16766;SDS011;8501;49.926;8.404;2022-12-20T05:08:35;109.47;;;46.17;;
16766;SDS011;8501;49.926;8.404;2022-12-20T05:11:01;107.07;;;44.77;;
16766;SDS011;8501;49.926;8.404;2022-12-20T05:13:26;105.47;;;46.43;;
16766;SDS011;8501;49.926;8.404;2022-12-20T05:15:53;112.90;;;46.37;;
16766;SDS011;8501;49.926;8.404;2022-12-20T05:18:19;113.47;;;46.13;;
16766;SDS011;8501;49.926;8.404;2022-12-20T05:20:46;110.07;;;46.73;;
16766;SDS011;8501;49.926;8.404;2022-12-20T05:23:11;116.77;;;47.77;;
16766;SDS011;8501;49.926;8.404;2022-12-20T05:25:56;108.33;;;45.53;;
16766;SDS011;8501;49.926;8.404;2022-12-20T05:28:40;107.00;;;45.97;;
16766;SDS011;8501;49.926;8.404;2022-12-20T05:31:05;112.23;;;47.13;;
16766;SDS011;8501;49.926;8.404;2022-12-20T05:33:31;111.70;;;46.00;;
16766;SDS011;8501;49.926;8.404;2022-12-20T05:35:56;108.97;;;46.70;;
16766;SDS011;8501;49.926;8.404;2022-12-20T05:38:22;110.00;;;45.90;;
16766;SDS011;8501;49.926;8.404;2022-12-20T05:40:48;110.80;;;45.20;;
16766;SDS011;8501;49.926;8.404;2022-12-20T05:43:15;107.80;;;45.50;;
16766;SDS011;8501;49.926;8.404;2022-12-20T05:45:49;108.47;;;44.20;;
16766;SDS011;8501;49.926;8.404;2022-12-20T05:48:16;104.33;;;45.03;;
16766;SDS011;8501;49.926;8.404;2022-12-20T05:50:43;115.63;;;48.77;;
16766;SDS011;8501;49.926;8.404;2022-12-20T05:53:10;125.47;;;53.07;;
16766;SDS011;8501;49.926;8.404;2022-12-20T05:55:36;131.73;;;53.90;;
16766;SDS011;8501;49.926;8.404;2022-12-20T05:58:04;120.37;;;50.50;;
16766;SDS011;8501;49.926;8.404;2022-12-20T06:00:30;114.77;;;48.33;;
16766;SDS011;8501;49.926;8.404;2022-12-20T06:02:55;108.83;;;46.53;;
16766;SDS011;8501;49.926;8.404;2022-12-20T06:05:21;101.80;;;44.67;;
16766;SDS011;8501;49.926;8.404;2022-12-20T06:07:46;111.03;;;45.70;;
16766;SDS011;8501;49.926;8.404;2022-12-20T06:10:12;104.77;;;44.67;;
16766;SDS011;8501;49.926;8.404;2022-12-20T06:12:38;110.13;;;44.50;;
16766;SDS011;8501;49.926;8.404;2022-12-20T06:15:04;103.80;;;44.40;;
16766;SDS011;8501;49.926;8.404;2022-12-20T06:17:29;106.33;;;44.40;;
16766;SDS011;8501;49.926;8.404;2022-12-20T06:19:55;99.13;;;43.47;;
16766;SDS011;8501;49.926;8.404;2022-12-20T06:22:20;107.87;;;44.77;;
16766;SDS011;8501;49.926;8.404;2022-12-20T06:24:48;93.07;;;42.40;;
16766;SDS011;8501;49.926;8.404;2022-12-20T06:27:13;107.47;;;44.27;;
16766;SDS011;8501;49.926;8.404;2022-12-20T06:29:39;102.50;;;45.10;;
16766;SDS011;8501;49.926;8.404;2022-12-20T06:32:04;104.20;;;46.13;;
16766;SDS011;8501;49.926;8.404;2022-12-20T06:34:30;103.67;;;45.00;;
16766;SDS011;8501;49.926;8.404;2022-12-20T06:36:56;107.17;;;45.67;;
16766;SDS011;8501;49.926;8.404;2022-12-20T06:39:22;106.27;;;44.27;;
16766;SDS011;8501;49.926;8.404;2022-12-20T06:41:47;99.60;;;43.27;;
16766;SDS011;8501;49.926;8.404;2022-12-20T06:44:13;115.50;;;45.37;;
16766;SDS011;8501;49.926;8.404;2022-12-20T06:46:38;104.93;;;43.93;;
16766;SDS011;8501;49.926;8.404;2022-12-20T06:49:04;109.83;;;45.17;;
16766;SDS011;8501;49.926;8.404;2022-12-20T06:51:29;110.50;;;45.63;;
16766;SDS011;8501;49.926;8.404;2022-12-20T06:53:55;118.90;;;47.43;;
16766;SDS011;8501;49.926;8.404;2022-12-20T06:56:20;113.00;;;46.00;;
16766;SDS011;8501;49.926;8.404;2022-12-20T06:58:46;103.53;;;44.60;;
16766;SDS011;8501;49.926;8.404;2022-12-20T07:01:11;104.77;;;44.80;;
16766;SDS011;8501;49.926;8.404;2022-12-20T07:03:37;101.33;;;43.93;;
16766;SDS011;8501;49.926;8.404;2022-12-20T07:06:02;107.50;;;43.97;;
16766;SDS011;8501;49.926;8.404;2022-12-20T07:08:28;105.80;;;43.23;;
16766;SDS011;8501;49.926;8.404;2022-12-20T07:10:53;98.63;;;43.33;;
16766;SDS011;8501;49.926;8.404;2022-12-20T07:13:20;101.33;;;43.23;;
16766;SDS011;8501;49.926;8.404;2022-12-20T07:15:45;93.23;;;42.70;;
16766;SDS011;8501;49.926;8.404;2022-12-20T07:18:11;102.37;;;42.53;;
16766;SDS011;8501;49.926;8.404;2022-12-20T07:20:36;106.83;;;43.80;;
16766;SDS011;8501;49.926;8.404;2022-12-20T07:23:02;106.20;;;43.70;;
16766;SDS011;8501;49.926;8.404;2022-12-20T07:25:28;101.30;;;42.53;;
16766;SDS011;8501;49.926;8.404;2022-12-20T07:27:53;101.47;;;43.67;;
16766;SDS011;8501;49.926;8.404;2022-12-20T07:30:19;104.47;;;43.20;;
16766;SDS011;8501;49.926;8.404;2022-12-20T07:32:45;102.83;;;42.63;;
16766;SDS011;8501;49.926;8.404;2022-12-20T07:35:11;96.50;;;42.03;;
16766;SDS011;8501;49.926;8.404;2022-12-20T07:37:37;103.93;;;43.10;;
16766;SDS011;8501;49.926;8.404;2022-12-20T07:40:03;108.80;;;44.93;;
16766;SDS011;8501;49.926;8.404;2022-12-20T07:42:29;102.00;;;44.33;;
16766;SDS011;8501;49.926;8.404;2022-12-20T07:44:55;108.30;;;44.63;;
16766;SDS011;8501;49.926;8.404;2022-12-20T07:47:20;103.30;;;43.47;;
16766;SDS011;8501;49.926;8.404;2022-12-20T07:49:46;112.10;;;44.17;;
16766;SDS011;8501;49.926;8.404;2022-12-20T07:52:13;109.37;;;44.00;;
16766;SDS011;8501;49.926;8.404;2022-12-20T07:54:41;106.57;;;44.80;;
16766;SDS011;8501;49.926;8.404;2022-12-20T07:57:12;121.27;;;49.30;;
16766;SDS011;8501;49.926;8.404;2022-12-20T07:59:44;123.57;;;50.73;;
16766;SDS011;8501;49.926;8.404;2022-12-20T08:02:16;118.37;;;47.97;;
16766;SDS011;8501;49.926;8.404;2022-12-20T08:04:45;121.77;;;48.13;;
16766;SDS011;8501;49.926;8.404;2022-12-20T08:07:11;109.57;;;46.27;;
16766;SDS011;8501;49.926;8.404;2022-12-20T08:09:38;113.40;;;46.97;;
16766;SDS011;8501;49.926;8.404;2022-12-20T08:12:07;112.83;;;45.33;;
16766;SDS011;8501;49.926;8.404;2022-12-20T08:14:35;107.00;;;45.87;;
16766;SDS011;8501;49.926;8.404;2022-12-20T08:17:01;105.70;;;44.57;;
16766;SDS011;8501;49.926;8.404;2022-12-20T08:19:27;109.03;;;45.73;;
16766;SDS011;8501;49.926;8.404;2022-12-20T08:21:53;106.53;;;45.10;;
16766;SDS011;8501;49.926;8.404;2022-12-20T08:24:18;104.93;;;44.73;;
16766;SDS011;8501;49.926;8.404;2022-12-20T08:26:44;115.83;;;46.87;;
16766;SDS011;8501;49.926;8.404;2022-12-20T08:29:10;109.50;;;45.77;;
16766;SDS011;8501;49.926;8.404;2022-12-20T08:31:36;113.83;;;47.13;;
16766;SDS011;8501;49.926;8.404;2022-12-20T08:34:06;112.57;;;47.80;;
16766;SDS011;8501;49.926;8.404;2022-12-20T08:36:31;111.83;;;47.10;;
16766;SDS011;8501;49.926;8.404;2022-12-20T08:38:57;120.57;;;47.80;;
16766;SDS011;8501;49.926;8.404;2022-12-20T08:41:25;111.53;;;49.13;;
16766;SDS011;8501;49.926;8.404;2022-12-20T08:43:51;120.63;;;50.63;;
16766;SDS011;8501;49.926;8.404;2022-12-20T08:46:17;115.67;;;48.47;;
16766;SDS011;8501;49.926;8.404;2022-12-20T08:48:42;120.83;;;48.10;;
16766;SDS011;8501;49.926;8.404;2022-12-20T08:51:08;114.37;;;48.30;;
16766;SDS011;8501;49.926;8.404;2022-12-20T08:53:35;113.17;;;47.77;;
16766;SDS011;8501;49.926;8.404;2022-12-20T08:56:14;122.37;;;50.80;;
16766;SDS011;8501;49.926;8.404;2022-12-20T08:58:41;125.00;;;53.20;;
16766;SDS011;8501;49.926;8.404;2022-12-20T09:01:09;128.20;;;52.20;;
16766;SDS011;8501;49.926;8.404;2022-12-20T09:03:36;131.00;;;53.87;;
16766;SDS011;8501;49.926;8.404;2022-12-20T09:06:21;132.23;;;54.67;;
16766;SDS011;8501;49.926;8.404;2022-12-20T09:08:47;132.43;;;54.93;;
16766;SDS011;8501;49.926;8.404;2022-12-20T09:11:17;147.50;;;59.43;;
16766;SDS011;8501;49.926;8.404;2022-12-20T09:13:45;141.83;;;57.77;;
16766;SDS011;8501;49.926;8.404;2022-12-20T09:16:13;141.80;;;57.67;;
16766;SDS011;8501;49.926;8.404;2022-12-20T09:18:40;153.40;;;61.70;;
16766;SDS011;8501;49.926;8.404;2022-12-20T09:21:06;143.40;;;57.70;;
16766;SDS011;8501;49.926;8.404;2022-12-20T09:23:32;133.17;;;54.30;;
16766;SDS011;8501;49.926;8.404;2022-12-20T09:26:03;129.70;;;52.73;;
16766;SDS011;8501;49.926;8.404;2022-12-20T09:28:30;119.03;;;51.37;;
16766;SDS011;8501;49.926;8.404;2022-12-20T09:30:56;127.70;;;51.03;;
16766;SDS011;8501;49.926;8.404;2022-12-20T09:33:23;118.70;;;50.93;;
16766;SDS011;8501;49.926;8.404;2022-12-20T09:35:48;121.17;;;49.33;;
16766;SDS011;8501;49.926;8.404;2022-12-20T09:38:14;124.17;;;52.67;;
16766;SDS011;8501;49.926;8.404;2022-12-20T09:40:43;118.00;;;50.30;;
16766;SDS011;8501;49.926;8.404;2022-12-20T09:43:11;113.03;;;49.03;;
16766;SDS011;8501;49.926;8.404;2022-12-20T09:45:38;116.90;;;49.03;;
16766;SDS011;8501;49.926;8.404;2022-12-20T09:48:05;114.13;;;48.53;;
16766;SDS011;8501;49.926;8.404;2022-12-20T10:01:22;114.13;;;48.43;;
16766;SDS011;8501;49.926;8.404;2022-12-20T10:03:49;111.90;;;49.30;;
16766;SDS011;8501;49.926;8.404;2022-12-20T10:06:31;117.50;;;49.53;;
16766;SDS011;8501;49.926;8.404;2022-12-20T10:09:10;111.03;;;47.63;;
16766;SDS011;8501;49.926;8.404;2022-12-20T10:14:54;111.00;;;46.20;;
16766;SDS011;8501;49.926;8.404;2022-12-20T10:17:47;111.33;;;47.73;;
16766;SDS011;8501;49.926;8.404;2022-12-20T10:23:45;117.80;;;49.13;;
16766;SDS011;8501;49.926;8.404;2022-12-20T10:26:23;117.80;;;49.93;;
16766;SDS011;8501;49.926;8.404;2022-12-20T10:28:49;119.97;;;51.07;;
16766;SDS011;8501;49.926;8.404;2022-12-20T10:31:15;129.03;;;53.73;;
16766;SDS011;8501;49.926;8.404;2022-12-20T10:33:42;123.47;;;52.83;;
16766;SDS011;8501;49.926;8.404;2022-12-20T10:38:55;122.63;;;52.77;;
16766;SDS011;8501;49.926;8.404;2022-12-20T10:41:23;126.17;;;51.70;;
16766;SDS011;8501;49.926;8.404;2022-12-20T10:43:57;128.57;;;54.27;;
16766;SDS011;8501;49.926;8.404;2022-12-20T10:46:37;129.47;;;54.87;;
16766;SDS011;8501;49.926;8.404;2022-12-20T10:54:39;127.77;;;52.87;;
16766;SDS011;8501;49.926;8.404;2022-12-20T10:57:12;131.07;;;55.73;;
16766;SDS011;8501;49.926;8.404;2022-12-20T10:59:47;145.20;;;58.70;;
16766;SDS011;8501;49.926;8.404;2022-12-20T11:02:23;145.10;;;55.87;;
16766;SDS011;8501;49.926;8.404;2022-12-20T11:05:01;126.77;;;54.97;;
16766;SDS011;8501;49.926;8.404;2022-12-20T11:07:37;129.67;;;54.13;;
16766;SDS011;8501;49.926;8.404;2022-12-20T11:10:23;135.37;;;55.97;;
16766;SDS011;8501;49.926;8.404;2022-12-20T11:12:53;140.30;;;57.30;;
16766;SDS011;8501;49.926;8.404;2022-12-20T11:15:27;143.63;;;58.00;;
16766;SDS011;8501;49.926;8.404;2022-12-20T11:18:11;144.20;;;58.73;;
16766;SDS011;8501;49.926;8.404;2022-12-20T11:27:10;141.77;;;58.90;;
16766;SDS011;8501;49.926;8.404;2022-12-20T11:29:48;139.03;;;58.73;;
16766;SDS011;8501;49.926;8.404;2022-12-20T11:35:24;124.10;;;54.23;;
16766;SDS011;8501;49.926;8.404;2022-12-20T11:43:47;135.73;;;58.90;;
16766;SDS011;8501;49.926;8.404;2022-12-20T11:46:37;138.33;;;58.13;;
16766;SDS011;8501;49.926;8.404;2022-12-20T11:49:34;126.20;;;56.20;;
16766;SDS011;8501;49.926;8.404;2022-12-20T11:55:06;139.53;;;59.23;;
16766;SDS011;8501;49.926;8.404;2022-12-20T11:57:48;129.80;;;57.93;;
16766;SDS011;8501;49.926;8.404;2022-12-20T12:00:21;134.37;;;57.90;;
16766;SDS011;8501;49.926;8.404;2022-12-20T12:02:50;130.23;;;57.50;;
16766;SDS011;8501;49.926;8.404;2022-12-20T12:05:39;135.57;;;60.33;;
16766;SDS011;8501;49.926;8.404;2022-12-20T12:08:10;141.63;;;60.27;;
16766;SDS011;8501;49.926;8.404;2022-12-20T12:10:44;153.53;;;65.33;;
16766;SDS011;8501;49.926;8.404;2022-12-20T12:13:26;147.00;;;63.30;;
16766;SDS011;8501;49.926;8.404;2022-12-20T12:18:47;161.37;;;72.47;;
16766;SDS011;8501;49.926;8.404;2022-12-20T12:21:23;158.20;;;71.60;;
16766;SDS011;8501;49.926;8.404;2022-12-20T12:24:00;152.27;;;68.10;;
16766;SDS011;8501;49.926;8.404;2022-12-20T12:26:33;148.87;;;65.60;;
16766;SDS011;8501;49.926;8.404;2022-12-20T12:29:05;149.50;;;68.27;;
16766;SDS011;8501;49.926;8.404;2022-12-20T12:34:35;175.53;;;88.40;;
16766;SDS011;8501;49.926;8.404;2022-12-20T12:37:20;226.43;;;118.00;;
16766;SDS011;8501;49.926;8.404;2022-12-20T12:40:28;158.27;;;80.37;;
16766;SDS011;8501;49.926;8.404;2022-12-20T12:43:28;139.87;;;69.27;;
16766;SDS011;8501;49.926;8.404;2022-12-20T12:46:15;135.20;;;61.87;;
16766;SDS011;8501;49.926;8.404;2022-12-20T12:48:44;134.53;;;63.07;;
16766;SDS011;8501;49.926;8.404;2022-12-20T12:51:21;141.17;;;62.90;;
16766;SDS011;8501;49.926;8.404;2022-12-20T12:54:11;136.47;;;62.33;;
16766;SDS011;8501;49.926;8.404;2022-12-20T12:56:44;135.73;;;61.77;;
16766;SDS011;8501;49.926;8.404;2022-12-20T13:11:55;146.03;;;63.37;;
16766;SDS011;8501;49.926;8.404;2022-12-20T13:16:50;133.90;;;63.60;;
16766;SDS011;8501;49.926;8.404;2022-12-20T13:27:28;133.70;;;61.00;;
16766;SDS011;8501;49.926;8.404;2022-12-20T13:46:18;122.37;;;59.07;;
16766;SDS011;8501;49.926;8.404;2022-12-20T13:48:48;128.73;;;57.50;;
16766;SDS011;8501;49.926;8.404;2022-12-20T13:51:17;136.03;;;61.23;;
16766;SDS011;8501;49.926;8.404;2022-12-20T13:58:52;119.77;;;57.90;;
16766;SDS011;8501;49.926;8.404;2022-12-20T14:01:23;121.93;;;57.70;;
16766;SDS011;8501;49.926;8.404;2022-12-20T14:03:49;120.30;;;57.03;;
16766;SDS011;8501;49.926;8.404;2022-12-20T14:06:17;121.77;;;57.20;;
16766;SDS011;8501;49.926;8.404;2022-12-20T14:08:48;121.30;;;56.70;;
16766;SDS011;8501;49.926;8.404;2022-12-20T14:11:16;125.90;;;59.53;;
16766;SDS011;8501;49.926;8.404;2022-12-20T14:13:49;125.13;;;58.20;;
16766;SDS011;8501;49.926;8.404;2022-12-20T14:16:20;125.33;;;58.13;;
16766;SDS011;8501;49.926;8.404;2022-12-20T14:18:48;122.60;;;59.07;;
16766;SDS011;8501;49.926;8.404;2022-12-20T14:21:15;118.77;;;56.70;;
16766;SDS011;8501;49.926;8.404;2022-12-20T14:23:43;122.47;;;58.43;;
16766;SDS011;8501;49.926;8.404;2022-12-20T14:26:21;124.37;;;58.30;;
16766;SDS011;8501;49.926;8.404;2022-12-20T14:28:51;120.27;;;59.00;;
16766;SDS011;8501;49.926;8.404;2022-12-20T14:36:29;122.20;;;56.77;;
16766;SDS011;8501;49.926;8.404;2022-12-20T14:38:56;124.63;;;58.50;;
16766;SDS011;8501;49.926;8.404;2022-12-20T14:41:36;121.57;;;56.77;;
16766;SDS011;8501;49.926;8.404;2022-12-20T14:44:12;123.50;;;57.00;;
16766;SDS011;8501;49.926;8.404;2022-12-20T14:46:45;118.00;;;56.30;;
16766;SDS011;8501;49.926;8.404;2022-12-20T14:49:17;122.57;;;58.50;;
16766;SDS011;8501;49.926;8.404;2022-12-20T14:51:48;121.57;;;59.63;;
16766;SDS011;8501;49.926;8.404;2022-12-20T14:54:15;115.87;;;58.93;;
16766;SDS011;8501;49.926;8.404;2022-12-20T14:56:51;132.50;;;60.17;;
16766;SDS011;8501;49.926;8.404;2022-12-20T14:59:27;128.50;;;60.63;;
16766;SDS011;8501;49.926;8.404;2022-12-20T15:01:55;121.37;;;55.77;;
16766;SDS011;8501;49.926;8.404;2022-12-20T15:04:39;111.47;;;53.73;;
16766;SDS011;8501;49.926;8.404;2022-12-20T15:07:27;113.77;;;53.33;;
16766;SDS011;8501;49.926;8.404;2022-12-20T15:09:55;116.30;;;54.43;;
16766;SDS011;8501;49.926;8.404;2022-12-20T15:12:20;112.13;;;52.63;;
16766;SDS011;8501;49.926;8.404;2022-12-20T15:14:46;111.70;;;51.60;;
16766;SDS011;8501;49.926;8.404;2022-12-20T15:17:12;115.13;;;53.63;;
16766;SDS011;8501;49.926;8.404;2022-12-20T15:19:39;113.07;;;55.07;;
16766;SDS011;8501;49.926;8.404;2022-12-20T15:22:05;118.83;;;55.53;;
16766;SDS011;8501;49.926;8.404;2022-12-20T15:24:39;116.57;;;55.07;;
16766;SDS011;8501;49.926;8.404;2022-12-20T15:27:05;123.77;;;58.07;;
16766;SDS011;8501;49.926;8.404;2022-12-20T15:29:36;114.57;;;56.53;;
16766;SDS011;8501;49.926;8.404;2022-12-20T15:32:13;123.37;;;56.83;;
16766;SDS011;8501;49.926;8.404;2022-12-20T15:34:44;128.10;;;57.87;;
16766;SDS011;8501;49.926;8.404;2022-12-20T15:37:13;120.40;;;54.57;;
16766;SDS011;8501;49.926;8.404;2022-12-20T15:39:39;118.13;;;53.97;;
16766;SDS011;8501;49.926;8.404;2022-12-20T15:42:05;115.17;;;54.73;;
16766;SDS011;8501;49.926;8.404;2022-12-20T15:44:31;120.60;;;57.87;;
16766;SDS011;8501;49.926;8.404;2022-12-20T15:47:00;122.53;;;57.93;;
16766;SDS011;8501;49.926;8.404;2022-12-20T15:49:29;120.67;;;58.60;;
16766;SDS011;8501;49.926;8.404;2022-12-20T15:51:56;123.40;;;57.90;;
16766;SDS011;8501;49.926;8.404;2022-12-20T15:56:51;120.63;;;59.07;;
16766;SDS011;8501;49.926;8.404;2022-12-20T15:59:17;121.87;;;56.90;;
16766;SDS011;8501;49.926;8.404;2022-12-20T16:01:43;126.47;;;61.20;;
16766;SDS011;8501;49.926;8.404;2022-12-20T16:04:16;135.17;;;62.00;;
16766;SDS011;8501;49.926;8.404;2022-12-20T16:06:44;130.07;;;61.83;;
16766;SDS011;8501;49.926;8.404;2022-12-20T16:09:11;128.07;;;60.10;;
16766;SDS011;8501;49.926;8.404;2022-12-20T16:11:37;130.97;;;60.93;;
16766;SDS011;8501;49.926;8.404;2022-12-20T16:14:03;126.33;;;59.70;;
16766;SDS011;8501;49.926;8.404;2022-12-20T16:16:31;132.97;;;59.47;;
16766;SDS011;8501;49.926;8.404;2022-12-20T16:19:00;120.97;;;59.17;;
16766;SDS011;8501;49.926;8.404;2022-12-20T16:21:31;125.73;;;60.73;;
16766;SDS011;8501;49.926;8.404;2022-12-20T16:24:08;223.63;;;95.53;;
16766;SDS011;8501;49.926;8.404;2022-12-20T16:26:37;312.90;;;126.77;;
16766;SDS011;8501;49.926;8.404;2022-12-20T16:29:03;289.60;;;117.63;;
16766;SDS011;8501;49.926;8.404;2022-12-20T16:31:29;237.63;;;96.93;;
16766;SDS011;8501;49.926;8.404;2022-12-20T16:34:00;258.73;;;108.37;;
16766;SDS011;8501;49.926;8.404;2022-12-20T16:36:28;248.37;;;104.83;;
16766;SDS011;8501;49.926;8.404;2022-12-20T16:38:54;198.37;;;91.33;;